createdAt,value
2022-11-14T00:01:27.215Z,46.07
2022-11-14T00:03:55.249Z,45.67
2022-11-14T00:06:23.880Z,42.60
2022-11-14T00:08:51.915Z,43.80
2022-11-14T00:11:21.349Z,42.17
2022-11-14T00:13:49.395Z,44.63
2022-11-14T00:16:18.298Z,43.07
2022-11-14T00:18:46.329Z,44.07
2022-11-14T00:21:14.302Z,46.47
2022-11-14T00:23:42.367Z,39.93
2022-11-14T00:26:10.495Z,44.07
2022-11-14T00:28:39.970Z,44.80
2022-11-14T00:31:08.272Z,43.50
2022-11-14T00:33:36.282Z,43.53
2022-11-14T00:36:05.313Z,47.70
2022-11-14T00:38:33.297Z,46.00
2022-11-14T00:41:01.311Z,47.90
2022-11-14T00:43:29.315Z,39.27
2022-11-14T00:45:58.789Z,42.23
2022-11-14T00:48:27.034Z,42.37
2022-11-14T00:50:55.285Z,43.00
2022-11-14T00:53:23.322Z,43.03
2022-11-14T00:55:51.296Z,41.13
2022-11-14T00:58:19.360Z,41.20
2022-11-14T01:00:47.543Z,38.50
2022-11-14T01:03:17.145Z,43.33
2022-11-14T01:05:46.567Z,47.87
2022-11-14T01:08:15.659Z,46.77
2022-11-14T01:10:45.244Z,42.60
2022-11-14T01:13:14.211Z,43.20
2022-11-14T01:15:42.840Z,42.90
2022-11-14T01:18:12.206Z,41.63
2022-11-14T01:20:42.123Z,43.30
2022-11-14T01:23:11.408Z,42.13
2022-11-14T01:25:41.085Z,48.20
2022-11-14T01:28:10.275Z,42.83
2022-11-14T01:30:38.968Z,45.50
2022-11-14T01:33:07.515Z,42.03
2022-11-14T01:35:37.082Z,40.77
2022-11-14T01:38:07.604Z,43.07
2022-11-14T01:40:35.727Z,40.43
2022-11-14T01:43:27.036Z,38.80
2022-11-14T01:45:58.367Z,40.17
2022-11-14T01:48:32.740Z,41.67
2022-11-14T01:51:04.672Z,43.80
2022-11-14T01:53:34.167Z,42.37
2022-11-14T01:56:05.627Z,38.00
2022-11-14T01:58:38.305Z,36.87
2022-11-14T02:01:06.615Z,44.70
2022-11-14T02:03:38.578Z,41.60
2022-11-14T02:06:09.245Z,40.57
2022-11-14T02:08:39.428Z,36.00
2022-11-14T02:11:07.415Z,39.17
2022-11-14T02:13:35.488Z,38.77
2022-11-14T02:16:03.671Z,33.57
2022-11-14T02:18:31.941Z,38.03
2022-11-14T02:21:01.595Z,37.23
2022-11-14T02:23:31.765Z,36.47
2022-11-14T02:25:59.984Z,38.00
2022-11-14T02:28:28.990Z,34.27
2022-11-14T02:30:57.424Z,39.13
2022-11-14T02:33:25.424Z,36.40
2022-11-14T02:35:53.480Z,38.97
2022-11-14T02:38:22.869Z,33.97
2022-11-14T02:40:50.840Z,37.53
2022-11-14T02:43:18.863Z,34.87
2022-11-14T02:45:46.948Z,33.83
2022-11-14T02:48:15.235Z,35.07
2022-11-14T02:50:43.260Z,39.07
2022-11-14T02:53:11.368Z,32.83
2022-11-14T02:55:40.749Z,32.10
2022-11-14T02:58:08.807Z,32.53
2022-11-14T03:00:47.985Z,35.27
2022-11-14T03:03:24.909Z,29.83
2022-11-14T03:05:53.540Z,33.27
2022-11-14T03:08:21.737Z,33.50
2022-11-14T03:10:51.092Z,32.47
2022-11-14T03:13:19.203Z,36.90
2022-11-14T03:15:47.396Z,37.77
2022-11-14T03:18:15.556Z,34.87
2022-11-14T03:20:45.007Z,33.77
2022-11-14T03:23:13.189Z,34.37
2022-11-14T03:25:41.242Z,34.73
2022-11-14T03:28:10.671Z,34.10
2022-11-14T03:30:38.710Z,34.67
2022-11-14T03:33:06.781Z,36.97
2022-11-14T03:35:34.809Z,38.30
2022-11-14T03:38:02.774Z,35.67
2022-11-14T03:40:30.816Z,35.83
2022-11-14T03:42:58.845Z,37.17
2022-11-14T03:45:28.226Z,37.17
2022-11-14T03:47:56.262Z,39.07
2022-11-14T03:50:24.236Z,37.80
2022-11-14T03:52:52.497Z,42.20
2022-11-14T03:55:20.590Z,38.00
2022-11-14T03:57:48.711Z,37.37
2022-11-14T04:00:17.275Z,36.63
2022-11-14T04:02:47.674Z,35.97
2022-11-14T04:05:16.085Z,36.40
2022-11-14T04:07:44.296Z,38.30
2022-11-14T04:10:12.467Z,37.23
2022-11-14T04:12:40.637Z,36.53
2022-11-14T04:15:09.512Z,37.50
2022-11-14T04:17:39.966Z,36.83
2022-11-14T04:20:10.938Z,41.47
2022-11-14T04:22:39.250Z,35.97
2022-11-14T04:25:08.772Z,35.50
2022-11-14T04:27:37.354Z,36.80
2022-11-14T04:30:06.443Z,39.50
2022-11-14T04:32:34.647Z,41.37
2022-11-14T04:35:02.647Z,36.93
2022-11-14T04:37:32.115Z,48.43
2022-11-14T04:40:02.566Z,37.93
2022-11-14T04:42:30.584Z,44.40
2022-11-14T04:44:58.647Z,35.43
2022-11-14T04:47:26.647Z,39.43
2022-11-14T04:49:54.674Z,38.93
2022-11-14T04:52:22.624Z,42.13
2022-11-14T04:54:52.000Z,42.23
2022-11-14T04:57:20.102Z,38.87
2022-11-14T04:59:48.341Z,39.23
2022-11-14T05:02:16.319Z,40.93
2022-11-14T05:04:44.558Z,42.57
2022-11-14T05:07:12.915Z,41.63
2022-11-14T05:09:40.896Z,46.67
2022-11-14T05:12:10.324Z,44.73
2022-11-14T05:14:38.372Z,44.53
2022-11-14T05:17:06.489Z,40.17
2022-11-14T05:19:34.620Z,42.63
2022-11-14T05:22:02.760Z,46.07
2022-11-14T05:24:30.933Z,46.37
2022-11-14T05:27:00.267Z,43.73
2022-11-14T05:29:29.797Z,45.70
2022-11-14T05:31:58.961Z,49.17
2022-11-14T05:34:27.042Z,43.60
2022-11-14T05:36:55.118Z,46.90
2022-11-14T05:39:23.143Z,43.30
2022-11-14T05:41:51.159Z,48.90
2022-11-14T05:44:19.260Z,46.93
2022-11-14T05:46:48.653Z,47.97
2022-11-14T05:49:20.755Z,45.17
2022-11-14T05:51:50.108Z,44.83
2022-11-14T05:54:18.180Z,49.50
2022-11-14T05:56:46.232Z,52.00
2022-11-14T05:59:14.246Z,42.90
2022-11-14T06:01:42.712Z,51.07
2022-11-14T06:04:14.810Z,48.30
2022-11-14T06:06:42.935Z,45.13
2022-11-14T06:09:11.112Z,47.63
2022-11-14T06:11:39.366Z,44.13
2022-11-14T06:14:10.869Z,49.67
2022-11-14T06:16:39.504Z,46.47
2022-11-14T06:19:07.562Z,46.73
2022-11-14T06:21:36.996Z,49.70
2022-11-14T06:24:05.509Z,49.57
2022-11-14T06:26:33.642Z,49.50
2022-11-14T06:29:01.782Z,45.43
2022-11-14T06:31:30.103Z,43.77
2022-11-14T06:33:58.234Z,47.70
2022-11-14T06:36:26.393Z,50.27
2022-11-14T06:38:55.887Z,47.80
2022-11-14T06:41:24.500Z,41.10
2022-11-14T06:43:54.876Z,39.20
2022-11-14T06:46:24.270Z,34.53
2022-11-14T06:48:52.665Z,33.70
2022-11-14T06:51:20.922Z,32.27
2022-11-14T06:53:49.110Z,32.73
2022-11-14T06:56:20.278Z,32.50
2022-11-14T06:58:50.225Z,38.20
2022-11-14T07:01:19.622Z,31.90
2022-11-14T07:03:48.359Z,33.30
2022-11-14T07:06:18.967Z,31.60
2022-11-14T07:08:47.318Z,35.37
2022-11-14T07:11:23.118Z,25.93
2022-11-14T07:13:53.227Z,29.47
2022-11-14T07:16:24.748Z,30.60
2022-11-14T07:18:52.789Z,28.43
2022-11-14T07:21:20.860Z,27.07
2022-11-14T07:23:49.359Z,28.90
2022-11-14T07:26:17.459Z,25.87
2022-11-14T07:28:52.233Z,26.93
2022-11-14T07:31:22.716Z,25.97
2022-11-14T07:33:50.812Z,32.00
2022-11-14T07:36:20.217Z,32.97
2022-11-14T07:38:49.126Z,30.80
2022-11-14T07:41:18.758Z,27.20
2022-11-14T07:43:47.178Z,29.37
2022-11-14T07:46:17.238Z,27.77
2022-11-14T07:48:47.237Z,30.30
2022-11-14T07:51:17.542Z,30.80
2022-11-14T07:53:45.770Z,28.53
2022-11-14T07:56:14.197Z,28.40
2022-11-14T07:58:43.742Z,32.70
2022-11-14T08:01:14.175Z,30.57
2022-11-14T08:03:45.925Z,29.80
2022-11-14T08:06:17.338Z,30.30
2022-11-14T08:08:45.462Z,30.43
2022-11-14T08:11:15.137Z,32.37
2022-11-14T08:13:51.324Z,27.90
2022-11-14T08:16:19.355Z,27.27
2022-11-14T08:18:47.689Z,28.93
2022-11-14T08:21:17.261Z,27.80
2022-11-14T08:23:45.910Z,34.43
2022-11-14T08:26:13.931Z,29.97
2022-11-14T08:28:42.297Z,29.83
2022-11-14T08:31:10.942Z,30.70
2022-11-14T08:33:39.101Z,23.50
2022-11-14T08:36:08.865Z,25.47
2022-11-14T08:38:38.883Z,25.70
2022-11-14T08:41:07.297Z,29.77
2022-11-14T08:43:35.527Z,26.63
2022-11-14T08:46:06.221Z,27.83
2022-11-14T08:48:34.949Z,23.33
2022-11-14T08:51:08.176Z,22.60
2022-11-14T08:53:36.659Z,21.97
2022-11-14T08:56:07.043Z,20.83
2022-11-14T08:58:35.587Z,19.07
2022-11-14T09:01:04.991Z,21.73
2022-11-14T09:03:33.596Z,22.53
2022-11-14T09:06:02.551Z,23.53
2022-11-14T09:08:31.831Z,23.00
2022-11-14T09:11:05.169Z,21.23
2022-11-14T09:13:38.553Z,21.77
2022-11-14T09:16:07.379Z,20.00
2022-11-14T09:18:35.714Z,21.33
2022-11-14T09:21:05.488Z,25.43
2022-11-14T09:23:33.856Z,23.37
2022-11-14T09:26:05.555Z,23.10
2022-11-14T09:28:35.347Z,24.67
2022-11-14T09:31:04.290Z,22.23
2022-11-14T09:33:32.797Z,23.13
2022-11-14T09:36:01.893Z,22.13
2022-11-14T09:38:35.410Z,21.37
2022-11-14T09:41:24.287Z,20.67
2022-11-14T09:44:21.000Z,23.43
2022-11-14T09:46:54.144Z,26.40
2022-11-14T09:49:31.896Z,19.60
2022-11-14T09:52:06.266Z,25.13
2022-11-14T09:54:46.011Z,24.60
2022-11-14T09:57:19.393Z,23.63
2022-11-14T09:59:50.328Z,24.80
2022-11-14T10:02:32.734Z,21.27
2022-11-14T10:05:14.751Z,28.20
2022-11-14T10:07:54.920Z,28.23
2022-11-14T10:10:38.714Z,25.53
2022-11-14T10:13:18.823Z,25.00
2022-11-14T10:15:56.197Z,24.60
2022-11-14T10:18:40.959Z,27.20
2022-11-14T10:21:29.665Z,25.87
2022-11-14T10:24:05.556Z,32.00
2022-11-14T10:26:39.737Z,36.27
2022-11-14T10:29:34.541Z,30.10
2022-11-14T10:32:11.936Z,33.67
2022-11-14T10:34:46.997Z,26.00
2022-11-14T10:37:21.428Z,27.80
2022-11-14T10:39:53.003Z,30.03
2022-11-14T10:42:30.322Z,25.83
2022-11-14T10:45:04.272Z,31.40
2022-11-14T10:47:39.407Z,23.90
2022-11-14T10:50:19.320Z,26.43
2022-11-14T10:52:49.104Z,30.73
2022-11-14T10:55:18.860Z,27.97
2022-11-14T10:57:47.622Z,31.53
2022-11-14T11:00:18.125Z,32.50
2022-11-14T11:02:53.598Z,27.17
2022-11-14T11:05:24.499Z,24.67
2022-11-14T11:08:36.053Z,27.70
2022-11-14T11:11:17.917Z,32.33
2022-11-14T11:13:54.432Z,26.83
2022-11-14T11:16:24.931Z,29.27
2022-11-14T11:18:54.591Z,30.00
2022-11-14T11:21:24.550Z,28.30
2022-11-14T11:23:54.791Z,25.73
2022-11-14T11:26:25.768Z,34.57
2022-11-14T11:29:06.123Z,33.90
2022-11-14T11:31:54.625Z,28.53
2022-11-14T11:34:27.712Z,29.77
2022-11-14T11:37:00.586Z,31.63
2022-11-14T11:39:31.657Z,29.07
2022-11-14T11:42:11.134Z,30.30
2022-11-14T11:44:45.702Z,29.10
2022-11-14T11:47:17.349Z,28.80
2022-11-14T11:49:53.444Z,34.73
2022-11-14T11:52:32.870Z,30.07
2022-11-14T11:55:06.566Z,30.53
2022-11-14T11:57:40.593Z,30.93
2022-11-14T12:00:15.893Z,36.57
2022-11-14T12:02:50.008Z,29.53
2022-11-14T12:05:27.241Z,37.43
2022-11-14T12:08:04.538Z,32.93
2022-11-14T12:10:37.069Z,27.70
2022-11-14T12:13:50.329Z,32.00
2022-11-14T12:16:33.486Z,29.90
2022-11-14T12:19:27.262Z,27.97
2022-11-14T12:22:17.740Z,28.03
2022-11-14T12:25:23.364Z,24.37
2022-11-14T12:28:06.804Z,27.50
2022-11-14T12:30:36.908Z,28.43
2022-11-14T12:33:09.712Z,30.67
2022-11-14T12:35:39.663Z,26.93
2022-11-14T12:38:19.716Z,28.20
2022-11-14T12:40:53.752Z,29.33
2022-11-14T12:43:36.797Z,24.53
2022-11-14T12:46:09.819Z,28.17
2022-11-14T12:48:40.450Z,28.47
2022-11-14T12:51:46.432Z,33.63
2022-11-14T12:54:47.014Z,30.10
2022-11-14T12:57:39.738Z,27.63
2022-11-14T13:00:10.397Z,26.63
2022-11-14T13:03:00.716Z,29.80
2022-11-14T13:05:50.756Z,31.50
2022-11-14T13:08:40.246Z,33.17
2022-11-14T13:12:00.904Z,28.87
2022-11-14T13:14:47.908Z,29.40
2022-11-14T13:17:44.826Z,30.17
2022-11-14T13:20:46.412Z,32.43
2022-11-14T13:23:59.459Z,28.37
2022-11-14T13:26:51.553Z,29.80
2022-11-14T13:30:00.319Z,30.83
2022-11-14T13:33:07.837Z,28.80
2022-11-14T13:36:04.872Z,27.30
2022-11-14T13:39:13.193Z,30.43
2022-11-14T13:42:18.534Z,29.03
2022-11-14T13:45:09.890Z,28.67
2022-11-14T13:48:07.445Z,28.63
2022-11-14T13:50:38.241Z,31.37
2022-11-14T13:53:13.854Z,30.40
2022-11-14T13:55:57.985Z,30.60
2022-11-14T13:58:51.780Z,32.30
2022-11-14T14:01:43.974Z,26.47
2022-11-14T14:04:27.522Z,28.20
2022-11-14T14:07:08.709Z,33.73
2022-11-14T14:09:49.453Z,30.60
2022-11-14T14:12:31.959Z,28.80
2022-11-14T14:15:13.076Z,28.53
2022-11-14T14:17:52.364Z,28.63
2022-11-14T14:20:33.131Z,28.10
2022-11-14T14:23:10.373Z,31.43
2022-11-14T14:25:47.039Z,35.93
2022-11-14T14:28:24.067Z,32.03
2022-11-14T14:31:16.220Z,29.47
2022-11-14T14:33:46.139Z,30.47
2022-11-14T14:36:25.831Z,30.47
2022-11-14T14:39:16.997Z,34.63
2022-11-14T14:41:45.649Z,31.40
2022-11-14T14:44:23.125Z,32.60
2022-11-14T14:46:54.073Z,31.80
2022-11-14T14:49:26.768Z,35.70
2022-11-14T14:51:58.519Z,36.17
2022-11-14T14:54:29.491Z,43.00
2022-11-14T14:57:01.313Z,39.63
2022-11-14T14:59:31.824Z,38.50
2022-11-14T15:02:02.054Z,36.93
2022-11-14T15:04:31.266Z,41.73
2022-11-14T15:06:59.597Z,38.40
2022-11-14T15:09:30.844Z,41.43
2022-11-14T15:12:01.506Z,41.60
2022-11-14T15:14:32.674Z,36.70
2022-11-14T15:17:02.384Z,64.57
2022-11-14T15:19:36.784Z,89.90
2022-11-14T15:22:07.283Z,67.30
2022-11-14T15:24:35.281Z,57.83
2022-11-14T15:27:06.837Z,46.23
2022-11-14T15:29:35.064Z,52.20
2022-11-14T15:32:06.140Z,48.63
2022-11-14T15:34:36.143Z,50.87
2022-11-14T15:37:22.634Z,44.63
2022-11-14T15:39:51.139Z,50.40
2022-11-14T15:42:22.016Z,50.13
2022-11-14T15:44:50.349Z,53.10
2022-11-14T15:47:25.817Z,57.27
2022-11-14T15:50:00.616Z,51.07
2022-11-14T15:52:35.498Z,55.20
2022-11-14T15:55:05.221Z,51.07
2022-11-14T15:57:33.569Z,52.27
2022-11-14T16:00:01.663Z,48.27
2022-11-14T16:02:33.574Z,52.17
2022-11-14T16:05:02.547Z,54.33
2022-11-14T16:07:31.007Z,58.60
2022-11-14T16:09:59.276Z,73.53
2022-11-14T16:12:28.449Z,65.40
2022-11-14T16:14:56.593Z,61.20
2022-11-14T16:17:24.789Z,65.83
2022-11-14T16:19:55.374Z,66.03
2022-11-14T16:22:23.394Z,62.23
2022-11-14T16:24:51.416Z,63.97
2022-11-14T16:27:19.548Z,68.83
2022-11-14T16:29:47.554Z,63.00
2022-11-14T16:32:15.586Z,69.73
2022-11-14T16:34:43.830Z,59.20
2022-11-14T16:37:15.456Z,52.43
2022-11-14T16:39:43.649Z,62.60
2022-11-14T16:42:13.030Z,70.80
2022-11-14T16:44:45.078Z,73.70
2022-11-14T16:47:16.542Z,76.50
2022-11-14T16:49:44.664Z,80.23
2022-11-14T16:52:15.318Z,126.60
2022-11-14T16:54:44.175Z,100.97
2022-11-14T16:57:12.352Z,88.07
2022-11-14T16:59:40.376Z,91.87
2022-11-14T17:02:08.977Z,79.07
2022-11-14T17:04:37.158Z,81.87
2022-11-14T17:07:05.236Z,91.97
2022-11-14T17:09:34.738Z,85.97
2022-11-14T17:12:02.881Z,78.80
2022-11-14T17:14:30.993Z,79.00
2022-11-14T17:17:02.136Z,79.67
2022-11-14T17:19:30.843Z,73.47
2022-11-14T17:21:59.394Z,73.93
2022-11-14T17:24:31.393Z,69.13
2022-11-14T17:27:01.765Z,74.33
2022-11-14T17:29:29.990Z,71.43
2022-11-14T17:31:58.296Z,81.00
2022-11-14T17:34:26.598Z,90.17
2022-11-14T17:36:55.024Z,90.47
2022-11-14T17:39:23.793Z,102.17
2022-11-14T17:41:51.881Z,115.93
2022-11-14T17:44:21.626Z,103.60
2022-11-14T17:46:50.294Z,107.73
2022-11-14T17:49:18.435Z,112.23
2022-11-14T17:51:46.655Z,105.57
2022-11-14T17:54:14.974Z,109.77
2022-11-14T17:56:48.506Z,93.40
2022-11-14T17:59:21.457Z,85.97
2022-11-14T18:01:51.197Z,85.23
2022-11-14T18:04:19.341Z,84.70
2022-11-14T18:06:47.527Z,108.37
2022-11-14T18:09:15.695Z,98.20
2022-11-14T18:11:44.126Z,92.63
2022-11-14T18:14:14.446Z,99.23
2022-11-14T18:17:10.461Z,69.80
2022-11-14T18:19:32.321Z,66.63
2022-11-14T18:22:00.488Z,76.33
2022-11-14T18:24:29.203Z,69.03
2022-11-14T18:26:59.091Z,81.10
2022-11-14T18:29:28.587Z,73.90
2022-11-14T18:31:56.627Z,83.00
2022-11-14T18:34:24.707Z,93.17
2022-11-14T18:36:54.708Z,82.80
2022-11-14T18:39:22.814Z,82.80
2022-11-14T18:41:50.949Z,82.30
2022-11-14T18:44:21.546Z,70.40
2022-11-14T18:46:49.624Z,62.73
2022-11-14T18:49:18.278Z,64.80
2022-11-14T18:51:47.160Z,66.10
2022-11-14T18:54:19.033Z,60.17
2022-11-14T18:56:48.623Z,49.27
2022-11-14T18:59:18.072Z,53.03
2022-11-14T19:01:46.320Z,52.43
2022-11-14T19:04:17.356Z,55.90
2022-11-14T19:06:45.668Z,55.73
2022-11-14T19:09:22.812Z,58.60
2022-11-14T19:12:08.505Z,68.90
2022-11-14T19:14:37.987Z,74.63
2022-11-14T19:17:07.112Z,73.63
2022-11-14T19:19:35.238Z,65.20
2022-11-14T19:22:04.077Z,65.67
2022-11-14T19:24:34.321Z,67.23
2022-11-14T19:27:02.572Z,69.83
2022-11-14T19:29:30.669Z,74.20
2022-11-14T19:31:59.018Z,67.30
2022-11-14T19:34:27.269Z,65.07
2022-11-14T19:37:00.723Z,71.07
2022-11-14T19:39:29.582Z,66.37
2022-11-14T19:41:59.306Z,67.93
2022-11-14T19:44:27.387Z,60.30
2022-11-14T19:46:55.534Z,61.90
2022-11-14T19:49:23.628Z,77.60
2022-11-14T19:51:51.723Z,77.97
2022-11-14T19:54:19.897Z,76.27
2022-11-14T19:56:48.097Z,71.20
2022-11-14T19:59:22.948Z,71.47
2022-11-14T20:01:55.397Z,74.90
2022-11-14T20:04:23.794Z,74.83
2022-11-14T20:06:52.093Z,74.90
2022-11-14T20:09:20.331Z,71.23
2022-11-14T20:11:48.496Z,76.70
2022-11-14T20:14:18.271Z,74.60
2022-11-14T20:16:46.896Z,73.47
2022-11-14T20:19:16.413Z,64.37
2022-11-14T20:21:44.612Z,72.03
2022-11-14T20:24:15.516Z,68.20
2022-11-14T20:26:43.704Z,70.73
2022-11-14T20:29:11.900Z,73.30
2022-11-14T20:31:51.807Z,66.83
2022-11-14T20:34:39.342Z,73.70
2022-11-14T20:37:12.182Z,77.97
2022-11-14T20:39:48.219Z,76.43
2022-11-14T20:42:27.328Z,76.53
2022-11-14T20:45:01.778Z,75.40
2022-11-14T20:47:52.023Z,72.43
2022-11-14T20:50:39.329Z,73.60
2022-11-14T20:53:25.214Z,75.93
2022-11-14T20:56:11.599Z,76.63
2022-11-14T20:59:03.634Z,70.93
2022-11-14T21:01:57.667Z,75.13
2022-11-14T21:04:50.091Z,80.13
2022-11-14T21:07:35.180Z,79.37
2022-11-14T21:10:35.851Z,83.60
2022-11-14T21:13:34.435Z,79.20
2022-11-14T21:16:25.336Z,71.77
2022-11-14T21:19:08.372Z,74.93
2022-11-14T21:21:49.721Z,68.43
2022-11-14T21:24:38.376Z,64.87
2022-11-14T21:27:15.784Z,71.70
2022-11-14T21:29:54.742Z,70.57
2022-11-14T21:32:36.374Z,68.10
2022-11-14T21:35:24.359Z,73.37
2022-11-14T21:38:07.514Z,65.73
2022-11-14T21:40:48.308Z,69.03
2022-11-14T21:43:34.239Z,59.47
2022-11-14T21:46:06.977Z,63.17
2022-11-14T21:48:44.413Z,66.73
2022-11-14T21:51:19.134Z,63.90
2022-11-14T21:54:01.117Z,60.37
2022-11-14T21:56:41.639Z,59.07
2022-11-14T21:59:34.374Z,63.30
2022-11-14T22:02:32.118Z,55.50
2022-11-14T22:05:03.092Z,62.13
2022-11-14T22:07:44.117Z,63.00
2022-11-14T22:10:22.627Z,56.60
2022-11-14T22:13:07.087Z,64.60
2022-11-14T22:15:53.858Z,64.60
2022-11-14T22:18:37.622Z,65.20
2022-11-14T22:21:10.716Z,67.43
2022-11-14T22:23:39.178Z,63.87
2022-11-14T22:26:08.868Z,66.37
2022-11-14T22:28:37.008Z,60.77
2022-11-14T22:31:08.423Z,65.47
2022-11-14T22:33:41.510Z,71.03
2022-11-14T22:36:15.798Z,69.97
2022-11-14T22:38:44.938Z,71.00
2022-11-14T22:41:16.642Z,68.37
2022-11-14T22:43:45.107Z,67.93
2022-11-14T22:46:14.811Z,65.90
2022-11-14T22:48:44.521Z,64.00
2022-11-14T22:51:14.382Z,60.87
2022-11-14T22:53:42.950Z,68.80
2022-11-14T22:56:14.830Z,66.03
2022-11-14T22:58:45.043Z,63.53
2022-11-14T23:01:14.119Z,63.57
2022-11-14T23:03:42.273Z,61.93
2022-11-14T23:06:11.821Z,58.27
2022-11-14T23:08:40.033Z,58.97
2022-11-14T23:11:10.760Z,60.63
2022-11-14T23:13:41.403Z,54.17
2022-11-14T23:16:10.710Z,57.40
2022-11-14T23:18:39.318Z,53.60
2022-11-14T23:21:09.011Z,58.03
2022-11-14T23:23:37.114Z,56.30
2022-11-14T23:26:05.699Z,48.40
2022-11-14T23:28:34.032Z,50.33
2022-11-14T23:31:03.696Z,53.60
2022-11-14T23:33:32.317Z,54.30
2022-11-14T23:36:00.591Z,49.20
2022-11-14T23:38:30.608Z,49.77
2022-11-14T23:41:00.729Z,47.67
2022-11-14T23:43:30.419Z,47.67
2022-11-14T23:45:59.041Z,53.83
2022-11-14T23:48:28.514Z,47.87
2022-11-14T23:50:57.677Z,50.63
2022-11-14T23:53:25.805Z,49.10
2022-11-14T23:55:54.442Z,51.60
2022-11-14T23:58:23.490Z,51.20
